createdAt,value
2022-10-26T00:01:15.606Z,77.80
2022-10-26T00:03:46.265Z,77.80
2022-10-26T00:06:16.167Z,77.60
2022-10-26T00:08:44.951Z,77.60
2022-10-26T00:11:15.246Z,77.80
2022-10-26T00:13:44.313Z,78.10
2022-10-26T00:16:14.838Z,78.10
2022-10-26T00:18:43.678Z,77.90
2022-10-26T00:21:12.223Z,77.70
2022-10-26T00:23:40.746Z,77.80
2022-10-26T00:26:09.742Z,77.60
2022-10-26T00:28:39.608Z,77.40
2022-10-26T00:31:10.219Z,77.50
2022-10-26T00:33:38.583Z,77.50
2022-10-26T00:36:09.327Z,77.30
2022-10-26T00:38:37.600Z,77.10
2022-10-26T00:41:06.035Z,77.10
2022-10-26T00:43:38.124Z,77.20
2022-10-26T00:46:10.843Z,77.30
2022-10-26T00:48:44.286Z,77.50
2022-10-26T00:51:19.430Z,77.60
2022-10-26T00:53:48.142Z,77.50
2022-10-26T00:56:17.678Z,77.10
2022-10-26T00:58:47.811Z,76.90
2022-10-26T01:01:16.672Z,76.80
2022-10-26T01:03:46.105Z,76.60
2022-10-26T01:06:16.094Z,76.70
2022-10-26T01:08:45.058Z,76.80
2022-10-26T01:11:14.382Z,76.90
2022-10-26T01:13:45.467Z,77.10
2022-10-26T01:16:31.369Z,77.20
2022-10-26T01:19:13.453Z,77.60
2022-10-26T01:21:48.748Z,77.60
2022-10-26T01:24:47.516Z,77.70
2022-10-26T01:27:29.574Z,78.30
2022-10-26T01:30:21.929Z,77.90
2022-10-26T01:33:04.929Z,78.10
2022-10-26T01:35:38.109Z,77.90
2022-10-26T01:38:12.687Z,77.70
2022-10-26T01:40:46.451Z,77.80
2022-10-26T01:43:16.675Z,77.70
2022-10-26T01:45:49.553Z,77.60
2022-10-26T01:48:21.783Z,77.70
2022-10-26T01:50:53.638Z,77.70
2022-10-26T01:53:22.455Z,77.50
2022-10-26T01:55:52.818Z,77.50
2022-10-26T01:58:53.234Z,77.50
2022-10-26T02:01:34.540Z,77.80
2022-10-26T02:04:10.803Z,77.60
2022-10-26T02:06:46.773Z,77.60
2022-10-26T02:09:24.865Z,77.60
2022-10-26T02:11:54.906Z,77.90
2022-10-26T02:14:28.867Z,77.70
2022-10-26T02:17:02.415Z,77.80
2022-10-26T02:19:39.003Z,77.80
2022-10-26T02:22:15.611Z,77.70
2022-10-26T02:24:44.999Z,77.70
2022-10-26T02:27:21.355Z,77.60
2022-10-26T02:29:52.129Z,77.70
2022-10-26T02:32:23.624Z,77.70
2022-10-26T02:34:54.210Z,77.70
2022-10-26T02:37:24.240Z,77.70
2022-10-26T02:39:53.914Z,77.70
2022-10-26T02:42:23.847Z,77.80
2022-10-26T02:44:55.634Z,77.80
2022-10-26T02:47:26.882Z,77.90
2022-10-26T02:49:56.037Z,77.90
2022-10-26T02:52:30.850Z,77.70
2022-10-26T02:55:04.310Z,77.60
2022-10-26T02:57:39.695Z,77.60
2022-10-26T03:02:47.698Z,77.30
2022-10-26T03:05:20.774Z,77.60
2022-10-26T03:07:49.004Z,77.60
2022-10-26T03:10:17.418Z,77.50
2022-10-26T03:12:45.792Z,77.50
2022-10-26T03:15:15.368Z,77.40
2022-10-26T03:17:45.031Z,77.50
2022-10-26T03:20:13.765Z,77.50
2022-10-26T03:22:41.985Z,77.50
2022-10-26T03:25:10.663Z,77.60
2022-10-26T03:27:39.034Z,77.70
2022-10-26T03:30:08.401Z,77.70
2022-10-26T03:32:36.711Z,77.80
2022-10-26T03:35:06.956Z,77.80
2022-10-26T03:37:35.188Z,78.00
2022-10-26T03:40:03.408Z,77.90
2022-10-26T03:42:35.434Z,77.60
2022-10-26T03:45:03.773Z,77.60
2022-10-26T03:47:31.995Z,77.70
2022-10-26T03:50:00.637Z,77.90
2022-10-26T03:52:30.256Z,78.10
2022-10-26T03:54:58.482Z,78.30
2022-10-26T03:57:26.675Z,78.10
2022-10-26T03:59:54.885Z,78.10
2022-10-26T04:02:23.122Z,78.20
2022-10-26T04:04:51.354Z,78.10
2022-10-26T04:07:19.571Z,78.10
2022-10-26T04:09:49.195Z,78.80
2022-10-26T04:12:17.418Z,78.30
2022-10-26T04:14:45.726Z,78.40
2022-10-26T04:17:13.949Z,78.40
2022-10-26T04:19:42.161Z,78.60
2022-10-26T04:22:10.417Z,78.70
2022-10-26T04:24:38.621Z,78.60
2022-10-26T04:27:08.294Z,78.70
2022-10-26T04:29:36.522Z,78.70
2022-10-26T04:32:05.035Z,78.60
2022-10-26T04:34:33.248Z,78.40
2022-10-26T04:37:01.479Z,78.60
2022-10-26T04:39:29.703Z,78.60
2022-10-26T04:41:57.954Z,78.70
2022-10-26T04:44:27.601Z,79.50
2022-10-26T04:46:55.923Z,79.10
2022-10-26T04:49:24.219Z,79.10
2022-10-26T04:51:52.468Z,79.20
2022-10-26T04:54:20.679Z,79.30
2022-10-26T04:56:48.902Z,79.50
2022-10-26T04:59:17.425Z,79.60
2022-10-26T05:01:47.210Z,79.70
2022-10-26T05:04:15.693Z,80.00
2022-10-26T05:06:43.910Z,80.00
2022-10-26T05:09:12.155Z,80.10
2022-10-26T05:11:40.414Z,80.10
2022-10-26T05:14:10.154Z,80.00
2022-10-26T05:16:38.394Z,80.00
2022-10-26T05:19:08.020Z,79.90
2022-10-26T05:21:36.291Z,79.90
2022-10-26T05:24:08.698Z,79.80
2022-10-26T05:26:39.857Z,79.70
2022-10-26T05:29:08.229Z,79.70
2022-10-26T05:31:36.518Z,79.70
2022-10-26T05:34:05.029Z,79.60
2022-10-26T05:36:34.658Z,79.60
2022-10-26T05:39:02.943Z,79.60
2022-10-26T05:41:31.216Z,79.60
2022-10-26T05:43:59.568Z,79.40
2022-10-26T05:46:27.848Z,79.30
2022-10-26T05:48:56.029Z,79.30
2022-10-26T05:51:24.247Z,79.30
2022-10-26T05:53:55.489Z,79.50
2022-10-26T05:56:36.371Z,79.80
2022-10-26T05:59:05.877Z,80.00
2022-10-26T06:01:48.520Z,79.60
2022-10-26T06:04:27.510Z,80.00
2022-10-26T06:06:57.183Z,80.10
2022-10-26T06:09:27.513Z,79.80
2022-10-26T06:11:56.429Z,79.80
2022-10-26T06:14:25.262Z,79.80
2022-10-26T06:17:26.439Z,79.70
2022-10-26T06:22:54.419Z,79.80
2022-10-26T06:25:33.064Z,79.80
2022-10-26T06:28:12.712Z,79.80
2022-10-26T06:30:41.629Z,79.80
2022-10-26T06:33:28.057Z,79.60
2022-10-26T06:36:10.261Z,79.60
2022-10-26T06:38:41.589Z,79.70
2022-10-26T06:41:14.718Z,79.50
2022-10-26T06:43:43.649Z,79.60
2022-10-26T06:46:25.388Z,79.50
2022-10-26T06:49:00.888Z,79.90
2022-10-26T06:51:32.184Z,79.80
2022-10-26T06:54:06.378Z,79.80
2022-10-26T06:56:36.166Z,79.70
2022-10-26T06:59:10.141Z,79.70
2022-10-26T07:01:38.497Z,79.70
2022-10-26T07:04:06.847Z,79.50
2022-10-26T07:06:36.905Z,79.50
2022-10-26T07:09:07.500Z,79.40
2022-10-26T07:11:39.616Z,79.30
2022-10-26T07:14:08.774Z,79.50
2022-10-26T07:16:37.484Z,79.20
2022-10-26T07:19:05.705Z,79.10
2022-10-26T07:21:34.008Z,79.10
2022-10-26T07:24:02.213Z,79.10
2022-10-26T07:26:30.497Z,79.20
2022-10-26T07:29:00.111Z,79.20
2022-10-26T07:31:28.642Z,79.30
2022-10-26T07:33:56.893Z,79.20
2022-10-26T07:36:25.510Z,79.10
2022-10-26T07:38:54.265Z,79.10
2022-10-26T07:41:22.751Z,79.10
2022-10-26T07:43:50.999Z,79.80
2022-10-26T07:46:20.786Z,79.00
2022-10-26T07:48:48.991Z,79.10
2022-10-26T07:51:17.336Z,79.20
2022-10-26T07:53:45.659Z,79.10
2022-10-26T07:56:16.946Z,79.00
2022-10-26T07:58:45.217Z,78.90
2022-10-26T08:01:16.305Z,78.70
2022-10-26T08:03:46.169Z,78.70
2022-10-26T08:06:15.067Z,78.50
2022-10-26T08:08:46.452Z,78.50
2022-10-26T08:11:16.426Z,78.40
2022-10-26T08:13:44.793Z,78.40
2022-10-26T08:16:13.573Z,78.50
2022-10-26T08:18:41.811Z,78.30
2022-10-26T08:21:15.640Z,78.30
2022-10-26T08:23:49.787Z,78.20
2022-10-26T08:26:18.577Z,78.00
2022-10-26T08:28:50.295Z,77.90
2022-10-26T08:31:18.724Z,77.90
2022-10-26T08:33:47.550Z,77.70
2022-10-26T08:36:21.425Z,77.50
2022-10-26T08:38:49.881Z,77.20
2022-10-26T08:41:18.303Z,77.10
2022-10-26T08:43:50.876Z,76.90
2022-10-26T08:46:23.053Z,76.60
2022-10-26T08:48:55.657Z,77.10
2022-10-26T08:51:30.896Z,77.40
2022-10-26T08:54:03.059Z,77.10
2022-10-26T08:56:40.888Z,77.00
2022-10-26T08:59:17.553Z,75.00
2022-10-26T09:01:45.929Z,73.10
2022-10-26T09:04:14.824Z,72.80
2022-10-26T09:06:57.471Z,72.00
2022-10-26T09:09:38.753Z,70.80
2022-10-26T09:12:14.131Z,70.80
2022-10-26T09:14:52.885Z,70.40
2022-10-26T09:17:31.671Z,70.20
2022-10-26T09:20:16.419Z,70.20
2022-10-26T09:22:52.186Z,70.10
2022-10-26T09:25:22.603Z,70.20
2022-10-26T09:27:55.452Z,70.60
2022-10-26T09:30:24.396Z,70.70
2022-10-26T09:32:57.606Z,70.90
2022-10-26T09:38:10.254Z,70.70
2022-10-26T09:40:49.053Z,70.70
2022-10-26T09:43:21.985Z,70.80
2022-10-26T09:45:53.546Z,71.40
2022-10-26T09:48:28.606Z,71.70
2022-10-26T09:51:01.913Z,71.40
2022-10-26T09:53:34.458Z,71.30
2022-10-26T09:56:06.752Z,71.10
2022-10-26T09:58:41.565Z,71.00
2022-10-26T10:01:30.018Z,70.80
2022-10-26T10:04:12.041Z,71.00
2022-10-26T10:06:40.619Z,71.40
2022-10-26T10:09:13.359Z,72.30
2022-10-26T10:11:44.176Z,70.90
2022-10-26T10:14:17.777Z,70.90
2022-10-26T10:16:55.543Z,69.20
2022-10-26T10:19:26.645Z,67.20
2022-10-26T10:21:58.118Z,66.70
2022-10-26T10:24:29.896Z,65.80
2022-10-26T10:27:00.431Z,65.30
2022-10-26T10:29:29.633Z,65.40
2022-10-26T10:31:59.450Z,65.60
2022-10-26T10:34:27.777Z,65.80
2022-10-26T10:36:56.733Z,65.90
2022-10-26T10:39:39.068Z,66.10
2022-10-26T10:42:18.020Z,66.30
2022-10-26T10:44:47.716Z,67.10
2022-10-26T10:47:24.308Z,66.90
2022-10-26T10:49:56.910Z,65.90
2022-10-26T10:52:27.916Z,65.80
2022-10-26T10:55:17.331Z,65.20
2022-10-26T10:58:13.112Z,64.40
2022-10-26T11:00:45.306Z,64.20
2022-10-26T11:03:25.945Z,64.40
2022-10-26T11:06:05.072Z,64.30
2022-10-26T11:08:39.742Z,64.30
2022-10-26T11:11:13.775Z,64.80
2022-10-26T11:13:49.834Z,65.10
2022-10-26T11:16:23.742Z,65.30
2022-10-26T11:18:56.047Z,65.80
2022-10-26T11:21:29.372Z,66.30
2022-10-26T11:24:11.440Z,66.90
2022-10-26T11:26:50.262Z,66.90
2022-10-26T11:29:36.561Z,66.80
2022-10-26T11:32:16.134Z,66.90
2022-10-26T11:34:51.279Z,67.20
2022-10-26T11:37:26.945Z,67.30
2022-10-26T11:40:04.316Z,67.50
2022-10-26T11:42:37.445Z,67.90
2022-10-26T11:45:10.301Z,68.10
2022-10-26T11:47:44.203Z,68.50
2022-10-26T11:50:18.657Z,68.60
2022-10-26T11:52:51.038Z,68.90
2022-10-26T11:55:21.592Z,69.80
2022-10-26T11:57:53.795Z,71.00
2022-10-26T12:00:23.372Z,71.20
2022-10-26T12:02:57.036Z,71.10
2022-10-26T12:05:34.236Z,70.50
2022-10-26T12:08:06.965Z,69.70
2022-10-26T12:10:37.439Z,69.10
2022-10-26T12:13:17.186Z,67.70
2022-10-26T12:16:02.868Z,65.00
2022-10-26T12:18:57.441Z,64.50
2022-10-26T12:21:29.602Z,63.30
2022-10-26T12:23:59.965Z,62.90
2022-10-26T12:26:53.380Z,62.50
2022-10-26T12:29:37.322Z,60.50
2022-10-26T12:32:29.238Z,64.00
2022-10-26T12:35:27.001Z,60.70
2022-10-26T12:37:55.275Z,58.50
2022-10-26T12:40:44.439Z,59.30
2022-10-26T12:43:35.111Z,57.60
2022-10-26T12:46:41.415Z,56.90
2022-10-26T12:50:00.888Z,57.40
2022-10-26T12:52:36.523Z,56.80
2022-10-26T12:55:49.718Z,55.60
2022-10-26T12:58:59.128Z,55.60
2022-10-26T13:02:05.517Z,54.90
2022-10-26T13:05:26.259Z,54.40
2022-10-26T13:08:02.018Z,55.00
2022-10-26T13:10:30.440Z,54.70
2022-10-26T13:13:01.146Z,54.40
2022-10-26T13:15:32.355Z,53.50
2022-10-26T13:18:08.326Z,53.20
2022-10-26T13:20:52.127Z,53.10
2022-10-26T13:23:26.926Z,53.10
2022-10-26T13:26:07.515Z,53.00
2022-10-26T13:28:47.824Z,52.90
2022-10-26T13:31:56.042Z,52.90
2022-10-26T13:34:27.483Z,53.30
2022-10-26T13:37:06.055Z,53.20
2022-10-26T13:39:38.534Z,52.90
2022-10-26T13:42:08.871Z,53.20
2022-10-26T13:44:43.191Z,53.50
2022-10-26T13:47:16.324Z,53.00
2022-10-26T13:49:48.588Z,53.10
2022-10-26T13:52:23.954Z,53.00
2022-10-26T13:54:58.987Z,52.90
2022-10-26T13:57:34.048Z,52.90
2022-10-26T14:00:10.034Z,52.90
2022-10-26T14:02:44.093Z,53.90
2022-10-26T14:05:15.215Z,52.80
2022-10-26T14:07:51.441Z,53.30
2022-10-26T14:10:29.546Z,53.00
2022-10-26T14:12:58.760Z,52.70
2022-10-26T14:15:30.770Z,53.00
2022-10-26T14:18:02.174Z,52.70
2022-10-26T14:20:32.512Z,52.80
2022-10-26T14:23:02.158Z,52.60
2022-10-26T14:25:42.236Z,52.60
2022-10-26T14:28:23.677Z,52.80
2022-10-26T14:30:52.557Z,53.00
2022-10-26T14:33:21.791Z,53.40
2022-10-26T14:35:50.537Z,53.80
2022-10-26T14:38:26.497Z,54.20
2022-10-26T14:40:57.361Z,54.70
2022-10-26T14:43:27.155Z,55.20
2022-10-26T14:45:57.414Z,55.60
2022-10-26T14:48:30.033Z,56.00
2022-10-26T14:51:02.662Z,56.40
2022-10-26T14:53:37.010Z,56.80
2022-10-26T14:56:07.325Z,57.10
2022-10-26T14:58:36.403Z,57.50
2022-10-26T15:01:35.868Z,57.90
2022-10-26T15:04:07.585Z,58.60
2022-10-26T15:06:46.213Z,58.70
2022-10-26T15:09:46.508Z,59.20
2022-10-26T15:12:21.999Z,59.70
2022-10-26T15:14:51.425Z,59.90
2022-10-26T15:17:27.674Z,59.90
2022-10-26T15:19:57.910Z,60.50
2022-10-26T15:22:32.086Z,60.60
2022-10-26T15:25:05.554Z,61.20
2022-10-26T15:27:34.896Z,61.90
2022-10-26T15:30:24.422Z,61.80
2022-10-26T15:32:53.920Z,62.70
2022-10-26T15:35:37.193Z,62.50
2022-10-26T15:38:05.634Z,63.40
2022-10-26T15:40:37.136Z,62.90
2022-10-26T15:43:05.662Z,63.20
2022-10-26T15:45:38.210Z,63.30
2022-10-26T15:48:25.681Z,63.70
2022-10-26T15:50:54.189Z,64.40
2022-10-26T15:53:24.323Z,64.00
2022-10-26T15:55:55.414Z,64.40
2022-10-26T15:58:24.213Z,64.80
2022-10-26T16:00:52.648Z,64.80
2022-10-26T16:03:23.373Z,65.00
2022-10-26T16:05:56.535Z,65.40
2022-10-26T16:08:24.530Z,65.70
2022-10-26T16:10:56.876Z,65.10
2022-10-26T16:13:26.492Z,66.20
2022-10-26T16:15:54.734Z,66.00
2022-10-26T16:18:23.010Z,65.50
2022-10-26T16:20:51.315Z,65.70
2022-10-26T16:23:19.551Z,65.80
2022-10-26T16:25:48.676Z,65.90
2022-10-26T16:28:18.495Z,65.70
2022-10-26T16:30:47.274Z,66.10
2022-10-26T16:33:15.614Z,66.10
2022-10-26T16:35:44.200Z,66.30
2022-10-26T16:38:12.659Z,66.70
2022-10-26T16:40:43.275Z,66.70
2022-10-26T16:43:11.729Z,66.70
2022-10-26T16:45:43.100Z,66.90
2022-10-26T16:48:15.370Z,67.20
2022-10-26T16:50:43.967Z,67.10
2022-10-26T16:53:12.211Z,67.30
2022-10-26T16:55:40.445Z,67.50
2022-10-26T16:58:09.071Z,67.60
2022-10-26T17:00:37.781Z,67.90
2022-10-26T17:03:08.569Z,68.00
2022-10-26T17:05:40.627Z,68.30
2022-10-26T17:08:09.107Z,68.50
2022-10-26T17:10:37.335Z,68.40
2022-10-26T17:13:05.595Z,68.50
2022-10-26T17:15:35.882Z,68.50
2022-10-26T17:18:11.719Z,68.40
2022-10-26T17:20:40.341Z,68.30
2022-10-26T17:23:08.906Z,68.50
2022-10-26T17:25:38.398Z,68.70
2022-10-26T17:28:06.747Z,68.80
2022-10-26T17:30:36.181Z,69.30
2022-10-26T17:33:04.608Z,69.70
2022-10-26T17:35:35.618Z,70.10
2022-10-26T17:38:04.016Z,70.60
2022-10-26T17:40:33.230Z,70.40
2022-10-26T17:43:01.755Z,71.00
2022-10-26T17:45:29.999Z,71.10
2022-10-26T17:47:58.281Z,71.10
2022-10-26T17:50:26.570Z,71.30
2022-10-26T17:52:56.337Z,71.70
2022-10-26T17:55:26.170Z,72.40
2022-10-26T17:57:54.914Z,72.70
2022-10-26T18:00:23.292Z,72.80
2022-10-26T18:02:51.807Z,72.90
2022-10-26T18:05:20.819Z,73.20
2022-10-26T18:07:49.389Z,73.60
2022-10-26T18:10:36.871Z,73.70
2022-10-26T18:13:05.634Z,74.20
2022-10-26T18:15:37.434Z,73.80
2022-10-26T18:18:06.055Z,74.30
2022-10-26T18:20:34.400Z,74.10
2022-10-26T18:23:02.878Z,74.10
2022-10-26T18:25:32.798Z,74.10
2022-10-26T18:28:01.390Z,74.30
2022-10-26T18:30:29.851Z,74.30
2022-10-26T18:32:58.257Z,74.30
2022-10-26T18:35:26.755Z,74.30
2022-10-26T18:37:55.408Z,74.40
2022-10-26T18:40:23.851Z,74.20
2022-10-26T18:42:55.237Z,74.10
2022-10-26T18:45:25.880Z,75.00
2022-10-26T18:47:56.047Z,74.40
2022-10-26T18:50:24.417Z,74.20
2022-10-26T18:52:52.715Z,74.30
2022-10-26T18:55:20.996Z,74.40
2022-10-26T18:57:49.587Z,74.30
2022-10-26T19:00:20.021Z,74.30
2022-10-26T19:02:52.424Z,74.40
2022-10-26T19:05:21.069Z,74.40
2022-10-26T19:07:49.387Z,74.20
2022-10-26T19:10:17.732Z,74.30
2022-10-26T19:12:46.022Z,74.40
2022-10-26T19:15:14.502Z,74.30
2022-10-26T19:17:44.321Z,74.30
2022-10-26T19:20:13.581Z,73.80
2022-10-26T19:22:41.995Z,73.30
2022-10-26T19:25:11.384Z,73.10
2022-10-26T19:27:39.722Z,73.50
2022-10-26T19:30:09.415Z,74.10
2022-10-26T19:32:38.011Z,74.50
2022-10-26T19:35:11.305Z,74.60
2022-10-26T19:37:39.802Z,75.30
2022-10-26T19:40:09.366Z,75.50
2022-10-26T19:42:37.634Z,74.90
2022-10-26T19:45:09.690Z,75.10
2022-10-26T19:47:37.895Z,75.20
2022-10-26T19:50:08.211Z,75.20
2022-10-26T19:52:37.271Z,75.50
2022-10-26T19:55:06.056Z,75.40
2022-10-26T19:57:34.792Z,75.40
2022-10-26T20:00:03.286Z,75.40
2022-10-26T20:02:31.715Z,75.40
2022-10-26T20:05:03.266Z,75.40
2022-10-26T20:07:32.991Z,75.20
2022-10-26T20:10:02.062Z,74.90
2022-10-26T20:12:30.321Z,74.50
2022-10-26T20:14:58.572Z,74.30
2022-10-26T20:17:28.538Z,74.30
2022-10-26T20:19:57.128Z,74.40
2022-10-26T20:22:25.931Z,74.40
2022-10-26T20:24:55.764Z,74.30
2022-10-26T20:27:24.080Z,74.50
2022-10-26T20:29:52.363Z,74.60
2022-10-26T20:32:20.577Z,75.00
2022-10-26T20:34:49.889Z,75.00
2022-10-26T20:37:18.733Z,74.60
2022-10-26T20:39:49.415Z,74.50
2022-10-26T20:42:24.399Z,74.90
2022-10-26T20:45:01.265Z,75.50
2022-10-26T20:47:30.109Z,75.10
2022-10-26T20:49:58.856Z,74.80
2022-10-26T20:52:37.083Z,74.90
2022-10-26T20:55:12.137Z,75.00
2022-10-26T20:57:46.979Z,74.60
2022-10-26T21:00:16.647Z,75.10
2022-10-26T21:02:44.903Z,75.30
2022-10-26T21:05:13.270Z,75.00
2022-10-26T21:07:41.633Z,74.70
2022-10-26T21:10:10.467Z,74.70
2022-10-26T21:12:38.744Z,74.80
2022-10-26T21:15:09.980Z,75.10
2022-10-26T21:17:38.249Z,75.80
2022-10-26T21:20:07.154Z,75.90
2022-10-26T21:22:35.532Z,76.00
2022-10-26T21:25:05.016Z,76.20
2022-10-26T21:27:33.315Z,76.30
2022-10-26T21:30:01.636Z,77.00
2022-10-26T21:32:31.599Z,76.30
2022-10-26T21:34:59.895Z,76.60
2022-10-26T21:37:28.186Z,76.20
2022-10-26T21:39:56.612Z,76.10
2022-10-26T21:42:24.902Z,76.00
2022-10-26T21:44:53.129Z,75.80
2022-10-26T21:47:21.363Z,75.70
2022-10-26T21:49:50.978Z,75.70
2022-10-26T21:52:19.305Z,75.50
2022-10-26T21:54:47.685Z,75.20
2022-10-26T21:57:17.207Z,75.20
2022-10-26T21:59:45.430Z,75.30
2022-10-26T22:02:13.738Z,75.30
2022-10-26T22:04:42.060Z,75.30
2022-10-26T22:07:11.965Z,75.40
2022-10-26T22:09:49.487Z,75.60
2022-10-26T22:12:28.430Z,75.60
2022-10-26T22:14:56.736Z,75.70
2022-10-26T22:17:25.012Z,75.80
2022-10-26T22:19:53.230Z,76.00
2022-10-26T22:22:22.842Z,76.20
2022-10-26T22:24:51.063Z,76.40
2022-10-26T22:27:19.634Z,76.20
2022-10-26T22:29:48.077Z,76.40
2022-10-26T22:32:16.255Z,76.70
2022-10-26T22:34:44.494Z,76.80
2022-10-26T22:37:12.683Z,76.90
2022-10-26T22:39:42.367Z,76.80
2022-10-26T22:42:10.732Z,76.60
2022-10-26T22:44:38.973Z,76.10
2022-10-26T22:47:07.273Z,76.60
2022-10-26T22:49:35.486Z,75.60
2022-10-26T22:52:03.714Z,75.60
2022-10-26T22:54:31.984Z,75.80
2022-10-26T22:57:01.569Z,76.00
2022-10-26T22:59:29.828Z,76.20
2022-10-26T23:01:58.167Z,76.30
2022-10-26T23:04:26.622Z,76.50
2022-10-26T23:06:54.840Z,76.80
2022-10-26T23:09:23.068Z,77.10
2022-10-26T23:11:51.341Z,77.40
2022-10-26T23:14:20.998Z,77.40
2022-10-26T23:16:49.229Z,77.70
2022-10-26T23:19:17.669Z,77.90
2022-10-26T23:21:45.960Z,78.00
2022-10-26T23:24:14.180Z,78.20
2022-10-26T23:26:42.402Z,78.30
2022-10-26T23:29:10.643Z,78.40
2022-10-26T23:31:40.311Z,78.30
2022-10-26T23:34:09.975Z,78.30
2022-10-26T23:36:38.209Z,78.30
2022-10-26T23:39:06.436Z,78.30
2022-10-26T23:41:34.665Z,78.10
2022-10-26T23:44:02.890Z,78.00
2022-10-26T23:46:31.137Z,77.80
2022-10-26T23:49:00.852Z,77.80
2022-10-26T23:51:29.081Z,78.00
2022-10-26T23:53:57.371Z,78.20
2022-10-26T23:56:25.631Z,78.60
2022-10-26T23:58:53.922Z,78.90
